sensor_id;sensor_type;location;lat;lon;timestamp;pressure;altitude;pressure_sealevel;temperature;humidity
7768;BME280;3928;42.626;23.382;2023-05-19T00:01:31;94379.16;;;15.00;87.30
7768;BME280;3928;42.626;23.382;2023-05-19T00:04:02;94380.94;;;14.98;87.22
7768;BME280;3928;42.626;23.382;2023-05-19T00:06:31;94377.09;;;14.85;87.70
7768;BME280;3928;42.626;23.382;2023-05-19T00:09:01;94380.41;;;14.88;88.12
7768;BME280;3928;42.626;23.382;2023-05-19T00:11:30;94373.50;;;14.89;87.68
7768;BME280;3928;42.626;23.382;2023-05-19T00:13:58;94367.63;;;14.84;87.91
7768;BME280;3928;42.626;23.382;2023-05-19T00:16:27;94367.25;;;14.70;88.97
7768;BME280;3928;42.626;23.382;2023-05-19T00:18:54;94365.56;;;14.69;88.78
7768;BME280;3928;42.626;23.382;2023-05-19T00:21:21;94355.22;;;14.69;89.21
7768;BME280;3928;42.626;23.382;2023-05-19T00:23:48;94355.22;;;14.69;89.36
7768;BME280;3928;42.626;23.382;2023-05-19T00:26:16;94360.34;;;14.70;89.18
7768;BME280;3928;42.626;23.382;2023-05-19T00:28:43;94350.13;;;14.66;89.26
7768;BME280;3928;42.626;23.382;2023-05-19T00:31:10;94351.41;;;14.79;88.33
7768;BME280;3928;42.626;23.382;2023-05-19T00:33:36;94350.53;;;14.80;87.77
7768;BME280;3928;42.626;23.382;2023-05-19T00:36:04;94348.84;;;14.79;87.63
7768;BME280;3928;42.626;23.382;2023-05-19T00:38:32;94361.00;;;15.02;87.46
7768;BME280;3928;42.626;23.382;2023-05-19T00:40:59;94353.03;;;15.09;86.86
7768;BME280;3928;42.626;23.382;2023-05-19T00:43:28;94358.44;;;15.02;86.88
7768;BME280;3928;42.626;23.382;2023-05-19T00:45:55;94350.06;;;14.95;87.50
7768;BME280;3928;42.626;23.382;2023-05-19T00:48:23;94332.66;;;14.74;87.88
7768;BME280;3928;42.626;23.382;2023-05-19T00:50:51;94347.31;;;14.73;88.48
7768;BME280;3928;42.626;23.382;2023-05-19T00:53:19;94337.59;;;14.80;87.74
7768;BME280;3928;42.626;23.382;2023-05-19T00:55:46;94342.47;;;14.89;87.52
7768;BME280;3928;42.626;23.382;2023-05-19T00:58:15;94344.00;;;14.96;86.67
7768;BME280;3928;42.626;23.382;2023-05-19T01:00:43;94345.78;;;14.94;86.72
7768;BME280;3928;42.626;23.382;2023-05-19T01:03:10;94344.09;;;14.93;86.84
7768;BME280;3928;42.626;23.382;2023-05-19T01:05:38;94335.22;;;15.00;86.47
7768;BME280;3928;42.626;23.382;2023-05-19T01:08:06;94340.25;;;15.05;86.12
7768;BME280;3928;42.626;23.382;2023-05-19T01:10:33;94329.94;;;15.03;85.37
7768;BME280;3928;42.626;23.382;2023-05-19T01:13:00;94350.88;;;15.22;85.45
7768;BME280;3928;42.626;23.382;2023-05-19T01:15:29;94350.13;;;15.18;84.86
7768;BME280;3928;42.626;23.382;2023-05-19T01:18:04;94353.50;;;15.20;84.64
7768;BME280;3928;42.626;23.382;2023-05-19T01:20:35;94349.38;;;15.15;85.35
7768;BME280;3928;42.626;23.382;2023-05-19T01:23:23;94360.31;;;15.23;85.05
7768;BME280;3928;42.626;23.382;2023-05-19T01:26:18;94351.72;;;15.23;84.88
7768;BME280;3928;42.626;23.382;2023-05-19T01:29:26;94352.44;;;15.26;84.57
7768;BME280;3928;42.626;23.382;2023-05-19T01:31:58;94341.25;;;15.26;83.84
7768;BME280;3928;42.626;23.382;2023-05-19T01:34:26;94343.78;;;15.27;84.17
7768;BME280;3928;42.626;23.382;2023-05-19T01:36:54;94343.16;;;15.20;84.35
7768;BME280;3928;42.626;23.382;2023-05-19T01:39:22;94349.06;;;15.24;84.57
7768;BME280;3928;42.626;23.382;2023-05-19T01:41:49;94350.03;;;15.21;84.64
7768;BME280;3928;42.626;23.382;2023-05-19T01:44:17;94351.72;;;15.23;84.47
7768;BME280;3928;42.626;23.382;2023-05-19T01:46:46;94350.25;;;15.15;84.75
7768;BME280;3928;42.626;23.382;2023-05-19T01:49:15;94344.19;;;15.15;85.08
7768;BME280;3928;42.626;23.382;2023-05-19T01:51:42;94354.31;;;14.96;85.73
7768;BME280;3928;42.626;23.382;2023-05-19T01:54:09;94352.41;;;15.01;86.06
7768;BME280;3928;42.626;23.382;2023-05-19T01:56:40;94364.09;;;15.13;85.91
7768;BME280;3928;42.626;23.382;2023-05-19T01:59:23;94366.69;;;15.13;85.42
7768;BME280;3928;42.626;23.382;2023-05-19T02:01:56;94361.00;;;15.02;85.98
7768;BME280;3928;42.626;23.382;2023-05-19T02:04:35;94362.69;;;15.04;85.60
7768;BME280;3928;42.626;23.382;2023-05-19T02:07:12;94353.53;;;14.94;86.20
7768;BME280;3928;42.626;23.382;2023-05-19T02:09:50;94364.66;;;14.96;86.39
7768;BME280;3928;42.626;23.382;2023-05-19T02:12:27;94362.91;;;14.97;86.43
7768;BME280;3928;42.626;23.382;2023-05-19T02:15:03;94361.13;;;14.99;85.98
7768;BME280;3928;42.626;23.382;2023-05-19T02:17:32;94354.63;;;14.87;86.95
7768;BME280;3928;42.626;23.382;2023-05-19T02:20:02;94355.66;;;14.81;86.95
7768;BME280;3928;42.626;23.382;2023-05-19T02:22:29;94357.50;;;14.78;87.33
7768;BME280;3928;42.626;23.382;2023-05-19T02:24:57;94354.28;;;14.71;87.80
7768;BME280;3928;42.626;23.382;2023-05-19T02:27:24;94356.81;;;14.73;88.02
7768;BME280;3928;42.626;23.382;2023-05-19T02:29:51;94365.16;;;14.81;87.57
7768;BME280;3928;42.626;23.382;2023-05-19T02:32:19;94363.56;;;14.77;87.37
7768;BME280;3928;42.626;23.382;2023-05-19T02:34:46;94342.31;;;14.67;87.03
7768;BME280;3928;42.626;23.382;2023-05-19T02:37:15;94363.00;;;14.67;88.25
7768;BME280;3928;42.626;23.382;2023-05-19T02:39:42;94369.59;;;14.49;89.11
7768;BME280;3928;42.626;23.382;2023-05-19T02:42:10;94359.88;;;14.28;89.99
7768;BME280;3928;42.626;23.382;2023-05-19T02:44:39;94359.59;;;14.37;89.88
7768;BME280;3928;42.626;23.382;2023-05-19T02:47:05;94367.72;;;14.25;90.65
7768;BME280;3928;42.626;23.382;2023-05-19T02:49:32;94373.41;;;14.36;90.29
7768;BME280;3928;42.626;23.382;2023-05-19T02:52:00;94370.09;;;14.31;90.33
7768;BME280;3928;42.626;23.382;2023-05-19T02:54:29;94371.03;;;14.28;90.53
7768;BME280;3928;42.626;23.382;2023-05-19T02:56:56;94368.88;;;14.15;91.21
7768;BME280;3928;42.626;23.382;2023-05-19T02:59:23;94363.59;;;13.90;93.10
7768;BME280;3928;42.626;23.382;2023-05-19T03:01:51;94323.34;;;13.53;93.09
7768;BME280;3928;42.626;23.382;2023-05-19T03:04:18;94366.81;;;13.96;93.12
7768;BME280;3928;42.626;23.382;2023-05-19T03:06:45;94369.03;;;14.09;92.45
7768;BME280;3928;42.626;23.382;2023-05-19T03:09:12;94380.97;;;14.13;92.26
7768;BME280;3928;42.626;23.382;2023-05-19T03:11:40;94378.72;;;14.02;92.50
7768;BME280;3928;42.626;23.382;2023-05-19T03:14:07;94378.84;;;13.97;92.35
7768;BME280;3928;42.626;23.382;2023-05-19T03:16:35;94384.53;;;14.09;92.48
7768;BME280;3928;42.626;23.382;2023-05-19T03:19:01;94385.47;;;14.06;92.78
7768;BME280;3928;42.626;23.382;2023-05-19T03:21:28;94384.81;;;13.99;92.82
7768;BME280;3928;42.626;23.382;2023-05-19T03:23:56;94381.19;;;14.05;92.83
7768;BME280;3928;42.626;23.382;2023-05-19T03:26:23;94380.88;;;14.16;92.75
7768;BME280;3928;42.626;23.382;2023-05-19T03:28:51;94375.72;;;14.16;93.06
7768;BME280;3928;42.626;23.382;2023-05-19T03:31:18;94372.94;;;14.23;92.63
7768;BME280;3928;42.626;23.382;2023-05-19T03:33:45;94368.41;;;14.30;92.25
7768;BME280;3928;42.626;23.382;2023-05-19T03:36:12;94383.91;;;14.30;92.34
7768;BME280;3928;42.626;23.382;2023-05-19T03:38:39;94384.63;;;14.35;92.27
7768;BME280;3928;42.626;23.382;2023-05-19T03:41:06;94379.72;;;14.26;92.40
7768;BME280;3928;42.626;23.382;2023-05-19T03:43:32;94387.63;;;14.20;93.27
7768;BME280;3928;42.626;23.382;2023-05-19T03:46:01;94386.31;;;14.36;92.25
7768;BME280;3928;42.626;23.382;2023-05-19T03:48:27;94375.78;;;14.42;92.15
7768;BME280;3928;42.626;23.382;2023-05-19T03:50:54;94380.06;;;14.45;91.79
7768;BME280;3928;42.626;23.382;2023-05-19T03:53:21;94382.44;;;14.51;92.06
7768;BME280;3928;42.626;23.382;2023-05-19T03:55:48;94386.88;;;14.47;91.65
7768;BME280;3928;42.626;23.382;2023-05-19T03:58:15;94386.66;;;14.53;91.16
7768;BME280;3928;42.626;23.382;2023-05-19T04:00:42;94388.31;;;14.56;91.21
7768;BME280;3928;42.626;23.382;2023-05-19T04:03:10;94392.78;;;14.51;91.82
7768;BME280;3928;42.626;23.382;2023-05-19T04:05:38;94391.75;;;14.56;91.36
7768;BME280;3928;42.626;23.382;2023-05-19T04:08:05;94397.44;;;14.38;92.28
7768;BME280;3928;42.626;23.382;2023-05-19T04:10:32;94384.13;;;14.52;92.02
7768;BME280;3928;42.626;23.382;2023-05-19T04:13:00;94385.19;;;14.46;91.89
7768;BME280;3928;42.626;23.382;2023-05-19T04:15:28;94396.72;;;14.62;92.37
7768;BME280;3928;42.626;23.382;2023-05-19T04:17:55;94406.78;;;14.72;91.37
7768;BME280;3928;42.626;23.382;2023-05-19T04:20:23;94391.06;;;14.78;90.58
7768;BME280;3928;42.626;23.382;2023-05-19T04:22:50;94394.03;;;14.66;90.44
7768;BME280;3928;42.626;23.382;2023-05-19T04:25:17;94412.69;;;14.75;91.33
7768;BME280;3928;42.626;23.382;2023-05-19T04:27:44;94403.53;;;14.91;90.67
7768;BME280;3928;42.626;23.382;2023-05-19T04:30:13;94403.09;;;15.07;90.58
7768;BME280;3928;42.626;23.382;2023-05-19T04:32:46;94417.34;;;15.18;90.14
7768;BME280;3928;42.626;23.382;2023-05-19T04:35:13;94407.50;;;15.30;88.95
7768;BME280;3928;42.626;23.382;2023-05-19T04:37:43;94353.44;;;14.97;88.31
7768;BME280;3928;42.626;23.382;2023-05-19T04:40:11;94416.00;;;15.58;88.63
7768;BME280;3928;42.626;23.382;2023-05-19T04:42:38;94414.44;;;15.54;87.85
7768;BME280;3928;42.626;23.382;2023-05-19T04:45:08;94424.53;;;15.62;87.81
7768;BME280;3928;42.626;23.382;2023-05-19T04:47:37;94414.28;;;15.84;87.21
7768;BME280;3928;42.626;23.382;2023-05-19T04:50:05;94403.56;;;15.94;86.16
7768;BME280;3928;42.626;23.382;2023-05-19T04:52:34;94422.97;;;16.06;85.07
7768;BME280;3928;42.626;23.382;2023-05-19T04:55:03;94414.09;;;16.13;84.87
7768;BME280;3928;42.626;23.382;2023-05-19T04:57:32;94372.88;;;15.84;84.31
7768;BME280;3928;42.626;23.382;2023-05-19T04:59:59;94421.75;;;16.16;84.12
7768;BME280;3928;42.626;23.382;2023-05-19T05:02:27;94422.84;;;16.34;83.28
7768;BME280;3928;42.626;23.382;2023-05-19T05:04:58;94417.34;;;16.42;84.45
7768;BME280;3928;42.626;23.382;2023-05-19T05:07:25;94418.50;;;16.34;83.10
7768;BME280;3928;42.626;23.382;2023-05-19T05:09:52;94434.03;;;16.34;81.85
7768;BME280;3928;42.626;23.382;2023-05-19T05:12:21;94291.09;;;15.31;83.50
7768;BME280;3928;42.626;23.382;2023-05-19T05:14:49;94233.34;;;15.07;82.91
7768;BME280;3928;42.626;23.382;2023-05-19T05:17:16;94394.69;;;16.25;82.47
7768;BME280;3928;42.626;23.382;2023-05-19T05:19:44;94420.66;;;16.45;82.14
7768;BME280;3928;42.626;23.382;2023-05-19T05:22:11;94425.88;;;16.67;82.67
7768;BME280;3928;42.626;23.382;2023-05-19T05:24:39;94401.22;;;16.80;81.34
7768;BME280;3928;42.626;23.382;2023-05-19T05:27:06;94413.28;;;17.03;81.83
7768;BME280;3928;42.626;23.382;2023-05-19T05:29:35;94390.00;;;17.02;79.74
7768;BME280;3928;42.626;23.382;2023-05-19T05:32:02;94418.59;;;17.00;78.22
7768;BME280;3928;42.626;23.382;2023-05-19T05:34:29;94419.84;;;17.12;79.58
7768;BME280;3928;42.626;23.382;2023-05-19T05:36:56;94428.31;;;17.37;79.71
7768;BME280;3928;42.626;23.382;2023-05-19T05:39:25;94432.50;;;17.62;78.32
7768;BME280;3928;42.626;23.382;2023-05-19T05:41:52;94423.69;;;17.66;78.43
7768;BME280;3928;42.626;23.382;2023-05-19T05:44:19;94435.13;;;17.82;76.06
7768;BME280;3928;42.626;23.382;2023-05-19T05:46:47;94427.44;;;17.99;76.24
7768;BME280;3928;42.626;23.382;2023-05-19T05:49:15;94426.34;;;18.05;76.32
7768;BME280;3928;42.626;23.382;2023-05-19T05:51:42;94431.16;;;18.14;74.49
7768;BME280;3928;42.626;23.382;2023-05-19T05:54:11;94438.59;;;18.22;76.39
7768;BME280;3928;42.626;23.382;2023-05-19T05:56:38;94444.28;;;18.30;76.05
7768;BME280;3928;42.626;23.382;2023-05-19T05:59:05;94426.81;;;18.33;76.44
7768;BME280;3928;42.626;23.382;2023-05-19T06:01:33;94433.19;;;18.65;80.29
7768;BME280;3928;42.626;23.382;2023-05-19T06:04:08;94455.22;;;19.13;74.22
7768;BME280;3928;42.626;23.382;2023-05-19T06:06:36;94456.97;;;19.49;74.94
7768;BME280;3928;42.626;23.382;2023-05-19T06:09:06;94391.44;;;19.41;68.79
7768;BME280;3928;42.626;23.382;2023-05-19T06:11:34;94469.88;;;19.86;64.99
7768;BME280;3928;42.626;23.382;2023-05-19T06:14:06;94287.69;;;18.45;65.43
7768;BME280;3928;42.626;23.382;2023-05-19T06:16:34;94466.38;;;19.70;66.82
7768;BME280;3928;42.626;23.382;2023-05-19T06:19:01;94455.50;;;19.79;67.55
7768;BME280;3928;42.626;23.382;2023-05-19T06:21:29;94464.22;;;19.61;66.05
7768;BME280;3928;42.626;23.382;2023-05-19T06:23:57;94362.81;;;19.06;65.53
7768;BME280;3928;42.626;23.382;2023-05-19T06:26:27;94459.78;;;19.80;66.43
7768;BME280;3928;42.626;23.382;2023-05-19T06:28:55;94428.69;;;19.41;63.79
7768;BME280;3928;42.626;23.382;2023-05-19T06:31:23;94462.38;;;19.63;62.47
7768;BME280;3928;42.626;23.382;2023-05-19T06:33:52;94462.41;;;19.80;64.32
7768;BME280;3928;42.626;23.382;2023-05-19T06:36:20;94425.09;;;19.63;66.15
7768;BME280;3928;42.626;23.382;2023-05-19T06:38:50;94448.22;;;19.86;66.30
7768;BME280;3928;42.626;23.382;2023-05-19T06:41:17;94409.56;;;19.78;62.52
7768;BME280;3928;42.626;23.382;2023-05-19T06:43:46;94466.69;;;19.81;62.75
7768;BME280;3928;42.626;23.382;2023-05-19T06:46:13;94455.03;;;19.89;63.73
7768;BME280;3928;42.626;23.382;2023-05-19T06:48:42;94458.56;;;20.05;65.02
7768;BME280;3928;42.626;23.382;2023-05-19T06:51:08;94454.56;;;19.98;64.92
7768;BME280;3928;42.626;23.382;2023-05-19T06:53:35;94461.94;;;19.90;65.92
7768;BME280;3928;42.626;23.382;2023-05-19T06:56:04;94409.84;;;19.72;62.52
7768;BME280;3928;42.626;23.382;2023-05-19T06:58:31;94467.03;;;20.26;62.26
7768;BME280;3928;42.626;23.382;2023-05-19T07:00:58;94449.22;;;20.34;61.52
7768;BME280;3928;42.626;23.382;2023-05-19T07:03:25;94481.00;;;20.58;58.79
7768;BME280;3928;42.626;23.382;2023-05-19T07:05:52;94480.72;;;20.64;58.71
7768;BME280;3928;42.626;23.382;2023-05-19T07:08:20;94471.31;;;20.77;58.94
7768;BME280;3928;42.626;23.382;2023-05-19T07:10:47;94458.34;;;20.91;58.53
7768;BME280;3928;42.626;23.382;2023-05-19T07:13:15;94478.22;;;21.10;58.49
7768;BME280;3928;42.626;23.382;2023-05-19T07:15:42;94472.34;;;21.22;57.50
7768;BME280;3928;42.626;23.382;2023-05-19T07:18:09;94481.53;;;21.29;54.76
7768;BME280;3928;42.626;23.382;2023-05-19T07:20:36;94492.69;;;21.15;54.44
7768;BME280;3928;42.626;23.382;2023-05-19T07:23:03;94486.47;;;20.86;55.51
7768;BME280;3928;42.626;23.382;2023-05-19T07:25:29;94320.09;;;19.10;58.32
7768;BME280;3928;42.626;23.382;2023-05-19T07:27:57;94489.31;;;20.31;59.11
7768;BME280;3928;42.626;23.382;2023-05-19T07:30:26;94464.56;;;20.23;59.42
7768;BME280;3928;42.626;23.382;2023-05-19T07:32:54;94483.34;;;20.47;59.94
7768;BME280;3928;42.626;23.382;2023-05-19T07:35:21;94475.22;;;20.53;58.62
7768;BME280;3928;42.626;23.382;2023-05-19T07:37:50;94476.63;;;20.58;56.24
7768;BME280;3928;42.626;23.382;2023-05-19T07:40:17;94489.06;;;20.36;58.29
7768;BME280;3928;42.626;23.382;2023-05-19T07:42:44;94485.00;;;20.65;59.04
7768;BME280;3928;42.626;23.382;2023-05-19T07:45:11;94444.78;;;20.69;58.83
7768;BME280;3928;42.626;23.382;2023-05-19T07:47:39;94481.06;;;21.05;58.22
7768;BME280;3928;42.626;23.382;2023-05-19T07:50:06;94482.47;;;21.28;57.89
7768;BME280;3928;42.626;23.382;2023-05-19T07:52:33;94479.41;;;21.51;54.97
7768;BME280;3928;42.626;23.382;2023-05-19T07:55:01;94481.47;;;21.76;53.91
7768;BME280;3928;42.626;23.382;2023-05-19T07:57:27;94483.50;;;22.01;52.39
7768;BME280;3928;42.626;23.382;2023-05-19T07:59:54;94480.47;;;22.09;51.91
7768;BME280;3928;42.626;23.382;2023-05-19T08:02:21;94480.88;;;22.01;54.09
7768;BME280;3928;42.626;23.382;2023-05-19T08:04:49;94481.41;;;22.08;53.15
7768;BME280;3928;42.626;23.382;2023-05-19T08:07:17;94485.91;;;22.06;52.90
7768;BME280;3928;42.626;23.382;2023-05-19T08:09:44;94483.78;;;22.27;53.04
7768;BME280;3928;42.626;23.382;2023-05-19T08:12:11;94480.66;;;22.50;53.25
7768;BME280;3928;42.626;23.382;2023-05-19T08:14:37;94487.56;;;22.51;50.63
7768;BME280;3928;42.626;23.382;2023-05-19T08:17:04;94484.63;;;22.27;51.88
7768;BME280;3928;42.626;23.382;2023-05-19T08:19:31;94480.19;;;22.13;51.27
7768;BME280;3928;42.626;23.382;2023-05-19T08:21:59;94482.31;;;21.77;51.73
7768;BME280;3928;42.626;23.382;2023-05-19T08:24:26;94479.44;;;22.11;53.12
7768;BME280;3928;42.626;23.382;2023-05-19T08:26:54;94486.03;;;22.33;53.55
7768;BME280;3928;42.626;23.382;2023-05-19T08:29:22;94472.50;;;22.55;51.75
7768;BME280;3928;42.626;23.382;2023-05-19T08:31:48;94473.84;;;22.90;51.66
7768;BME280;3928;42.626;23.382;2023-05-19T08:34:17;94482.78;;;23.15;51.08
7768;BME280;3928;42.626;23.382;2023-05-19T08:36:44;94473.84;;;23.31;50.56
7768;BME280;3928;42.626;23.382;2023-05-19T08:39:13;94483.50;;;23.72;49.66
7768;BME280;3928;42.626;23.382;2023-05-19T08:41:41;94467.44;;;24.04;46.81
7768;BME280;3928;42.626;23.382;2023-05-19T08:44:08;94473.38;;;24.33;46.09
7768;BME280;3928;42.626;23.382;2023-05-19T08:46:36;94474.22;;;24.33;44.16
7768;BME280;3928;42.626;23.382;2023-05-19T08:49:06;94477.78;;;24.45;45.51
7768;BME280;3928;42.626;23.382;2023-05-19T08:51:38;94464.53;;;24.72;46.39
7768;BME280;3928;42.626;23.382;2023-05-19T08:54:14;94446.34;;;24.94;45.98
7768;BME280;3928;42.626;23.382;2023-05-19T08:56:42;94472.09;;;24.89;44.50
7768;BME280;3928;42.626;23.382;2023-05-19T08:59:11;94468.09;;;24.96;43.14
7768;BME280;3928;42.626;23.382;2023-05-19T09:01:39;94463.28;;;25.03;42.48
7768;BME280;3928;42.626;23.382;2023-05-19T09:04:07;94462.13;;;24.82;43.42
7768;BME280;3928;42.626;23.382;2023-05-19T09:06:35;94467.25;;;25.08;44.62
7768;BME280;3928;42.626;23.382;2023-05-19T09:09:05;94463.91;;;25.43;44.01
7768;BME280;3928;42.626;23.382;2023-05-19T09:11:34;94459.59;;;25.42;43.43
7768;BME280;3928;42.626;23.382;2023-05-19T09:14:02;94454.63;;;25.50;43.53
7768;BME280;3928;42.626;23.382;2023-05-19T09:16:28;94455.28;;;25.65;43.19
7768;BME280;3928;42.626;23.382;2023-05-19T09:18:57;94460.09;;;25.84;43.89
7768;BME280;3928;42.626;23.382;2023-05-19T09:21:28;94452.91;;;25.86;42.26
7768;BME280;3928;42.626;23.382;2023-05-19T09:23:56;94457.66;;;26.05;42.26
7768;BME280;3928;42.626;23.382;2023-05-19T09:26:23;94450.16;;;26.22;41.08
7768;BME280;3928;42.626;23.382;2023-05-19T09:28:57;94440.63;;;26.33;42.11
7768;BME280;3928;42.626;23.382;2023-05-19T09:31:23;94449.56;;;26.65;40.42
7768;BME280;3928;42.626;23.382;2023-05-19T09:33:52;94445.59;;;26.71;39.89
7768;BME280;3928;42.626;23.382;2023-05-19T09:36:19;94445.97;;;26.77;38.60
7768;BME280;3928;42.626;23.382;2023-05-19T09:38:46;94432.19;;;26.63;39.70
7768;BME280;3928;42.626;23.382;2023-05-19T09:41:13;94452.66;;;26.59;39.81
7768;BME280;3928;42.626;23.382;2023-05-19T09:43:40;94442.47;;;26.43;40.22
7768;BME280;3928;42.626;23.382;2023-05-19T09:46:09;94439.97;;;26.42;41.07
7768;BME280;3928;42.626;23.382;2023-05-19T09:48:36;94442.34;;;26.45;40.22
7768;BME280;3928;42.626;23.382;2023-05-19T09:51:03;94449.31;;;26.57;41.17
7768;BME280;3928;42.626;23.382;2023-05-19T09:53:33;94422.97;;;26.57;39.55
7768;BME280;3928;42.626;23.382;2023-05-19T09:56:00;94440.06;;;26.63;39.51
7768;BME280;3928;42.626;23.382;2023-05-19T09:58:30;94442.38;;;26.67;40.23
7768;BME280;3928;42.626;23.382;2023-05-19T10:01:00;94410.28;;;26.62;39.67
7768;BME280;3928;42.626;23.382;2023-05-19T10:03:30;94428.47;;;26.99;39.66
7768;BME280;3928;42.626;23.382;2023-05-19T10:06:00;94439.75;;;27.23;39.84
7768;BME280;3928;42.626;23.382;2023-05-19T10:08:28;94427.47;;;27.33;38.25
7768;BME280;3928;42.626;23.382;2023-05-19T10:10:56;94429.44;;;27.20;38.56
7768;BME280;3928;42.626;23.382;2023-05-19T10:13:24;94431.59;;;27.26;37.65
7768;BME280;3928;42.626;23.382;2023-05-19T10:15:52;94437.03;;;27.46;36.72
7768;BME280;3928;42.626;23.382;2023-05-19T10:18:21;94424.78;;;27.67;36.11
7768;BME280;3928;42.626;23.382;2023-05-19T10:20:53;94425.13;;;27.74;37.81
7768;BME280;3928;42.626;23.382;2023-05-19T10:23:20;94422.28;;;27.98;36.45
7768;BME280;3928;42.626;23.382;2023-05-19T10:25:48;94410.41;;;27.92;34.79
7768;BME280;3928;42.626;23.382;2023-05-19T10:28:17;94416.47;;;28.04;37.41
7768;BME280;3928;42.626;23.382;2023-05-19T10:30:49;94409.91;;;28.30;37.03
7768;BME280;3928;42.626;23.382;2023-05-19T10:33:20;94410.69;;;28.51;36.41
7768;BME280;3928;42.626;23.382;2023-05-19T10:36:08;94416.22;;;28.69;36.59
7768;BME280;3928;42.626;23.382;2023-05-19T10:38:45;94405.09;;;28.96;35.87
7768;BME280;3928;42.626;23.382;2023-05-19T10:41:20;94404.47;;;29.14;36.42
7768;BME280;3928;42.626;23.382;2023-05-19T10:43:54;94411.56;;;28.62;33.21
7768;BME280;3928;42.626;23.382;2023-05-19T10:46:25;94415.13;;;28.51;33.33
7768;BME280;3928;42.626;23.382;2023-05-19T10:48:53;94393.94;;;28.62;32.46
7768;BME280;3928;42.626;23.382;2023-05-19T10:51:27;94400.56;;;28.87;33.43
7768;BME280;3928;42.626;23.382;2023-05-19T10:53:55;94402.94;;;29.21;33.21
7768;BME280;3928;42.626;23.382;2023-05-19T10:56:30;94393.22;;;29.31;33.12
7768;BME280;3928;42.626;23.382;2023-05-19T10:58:59;94394.19;;;29.30;33.83
7768;BME280;3928;42.626;23.382;2023-05-19T11:01:30;94389.06;;;29.38;33.65
7768;BME280;3928;42.626;23.382;2023-05-19T11:04:03;94389.75;;;29.40;32.99
7768;BME280;3928;42.626;23.382;2023-05-19T11:06:33;94397.13;;;29.46;32.44
7768;BME280;3928;42.626;23.382;2023-05-19T11:09:12;94392.19;;;29.03;30.62
7768;BME280;3928;42.626;23.382;2023-05-19T11:11:45;94346.81;;;28.58;31.61
7768;BME280;3928;42.626;23.382;2023-05-19T11:14:13;94387.84;;;28.92;33.08
7768;BME280;3928;42.626;23.382;2023-05-19T11:16:40;94388.72;;;29.02;32.01
7768;BME280;3928;42.626;23.382;2023-05-19T11:19:08;94395.16;;;28.58;32.27
7768;BME280;3928;42.626;23.382;2023-05-19T11:21:48;94391.50;;;28.49;33.71
7768;BME280;3928;42.626;23.382;2023-05-19T11:24:36;94397.81;;;28.58;32.89
7768;BME280;3928;42.626;23.382;2023-05-19T11:27:18;94380.19;;;28.38;33.26
7768;BME280;3928;42.626;23.382;2023-05-19T11:29:46;94381.66;;;28.51;34.70
7768;BME280;3928;42.626;23.382;2023-05-19T11:32:14;94368.06;;;28.56;34.30
7768;BME280;3928;42.626;23.382;2023-05-19T11:34:42;94384.44;;;28.29;34.21
7768;BME280;3928;42.626;23.382;2023-05-19T11:37:11;94383.59;;;27.87;34.19
7768;BME280;3928;42.626;23.382;2023-05-19T11:39:38;94383.66;;;27.32;34.44
7768;BME280;3928;42.626;23.382;2023-05-19T11:42:05;94391.84;;;27.07;36.25
7768;BME280;3928;42.626;23.382;2023-05-19T11:44:31;94414.53;;;26.18;39.75
7768;BME280;3928;42.626;23.382;2023-05-19T11:46:59;94389.09;;;25.12;43.22
7768;BME280;3928;42.626;23.382;2023-05-19T11:49:26;94431.31;;;25.09;47.02
7768;BME280;3928;42.626;23.382;2023-05-19T11:51:53;94449.94;;;24.93;48.38
7768;BME280;3928;42.626;23.382;2023-05-19T11:54:28;94436.22;;;24.64;51.36
7768;BME280;3928;42.626;23.382;2023-05-19T11:56:55;94442.72;;;24.59;55.43
7768;BME280;3928;42.626;23.382;2023-05-19T11:59:28;94449.44;;;24.37;54.05
7768;BME280;3928;42.626;23.382;2023-05-19T12:01:56;94449.16;;;24.02;56.46
7768;BME280;3928;42.626;23.382;2023-05-19T12:04:23;94480.81;;;23.86;58.26
7768;BME280;3928;42.626;23.382;2023-05-19T12:06:50;94493.53;;;23.24;56.51
7768;BME280;3928;42.626;23.382;2023-05-19T12:09:17;94493.72;;;22.64;53.59
7768;BME280;3928;42.626;23.382;2023-05-19T12:11:46;94496.75;;;21.52;54.90
7768;BME280;3928;42.626;23.382;2023-05-19T12:14:13;94498.59;;;21.19;60.38
7768;BME280;3928;42.626;23.382;2023-05-19T12:16:40;94503.25;;;20.65;62.66
7768;BME280;3928;42.626;23.382;2023-05-19T12:19:07;94488.44;;;20.15;65.02
7768;BME280;3928;42.626;23.382;2023-05-19T12:21:35;94492.88;;;19.42;62.12
7768;BME280;3928;42.626;23.382;2023-05-19T12:24:02;94494.34;;;19.48;63.44
7768;BME280;3928;42.626;23.382;2023-05-19T12:26:30;94493.00;;;18.84;66.78
7768;BME280;3928;42.626;23.382;2023-05-19T12:28:58;94480.06;;;18.44;69.41
7768;BME280;3928;42.626;23.382;2023-05-19T12:31:26;94483.34;;;18.08;73.61
7768;BME280;3928;42.626;23.382;2023-05-19T12:33:54;94481.22;;;17.97;76.36
7768;BME280;3928;42.626;23.382;2023-05-19T12:36:22;94473.38;;;17.57;78.69
7768;BME280;3928;42.626;23.382;2023-05-19T12:38:53;94469.81;;;17.37;80.14
7768;BME280;3928;42.626;23.382;2023-05-19T12:41:20;94453.47;;;17.35;81.89
7768;BME280;3928;42.626;23.382;2023-05-19T12:43:48;94458.44;;;17.62;80.54
7768;BME280;3928;42.626;23.382;2023-05-19T12:46:18;94450.78;;;17.80;80.06
7768;BME280;3928;42.626;23.382;2023-05-19T12:48:46;94450.94;;;18.17;76.81
7768;BME280;3928;42.626;23.382;2023-05-19T12:51:15;94441.72;;;18.49;76.30
7768;BME280;3928;42.626;23.382;2023-05-19T12:53:43;94423.38;;;18.72;73.92
7768;BME280;3928;42.626;23.382;2023-05-19T12:56:11;94431.13;;;19.10;66.96
7768;BME280;3928;42.626;23.382;2023-05-19T12:58:38;94429.41;;;19.45;62.68
7768;BME280;3928;42.626;23.382;2023-05-19T13:01:06;94418.88;;;19.82;60.03
7768;BME280;3928;42.626;23.382;2023-05-19T13:03:40;94422.66;;;20.10;58.33
7768;BME280;3928;42.626;23.382;2023-05-19T13:06:07;94420.53;;;20.18;56.59
7768;BME280;3928;42.626;23.382;2023-05-19T13:08:36;94417.41;;;20.44;54.49
7768;BME280;3928;42.626;23.382;2023-05-19T13:11:03;94408.00;;;20.58;54.82
7768;BME280;3928;42.626;23.382;2023-05-19T13:13:30;94400.47;;;20.85;54.24
7768;BME280;3928;42.626;23.382;2023-05-19T13:15:56;94398.94;;;21.12;51.63
7768;BME280;3928;42.626;23.382;2023-05-19T13:18:24;94406.88;;;21.56;47.69